sensor_id;sensor_type;location;lat;lon;timestamp;pressure;altitude;pressure_sealevel;temperature;humidity
48874;BME280;66155;46.204;5.220;2023-04-27T00:03:21;98698.41;;;14.49;51.81
48874;BME280;66155;46.204;5.220;2023-04-27T00:08:21;98683.25;;;14.46;51.81
48874;BME280;66155;46.204;5.220;2023-04-27T00:13:22;98691.66;;;14.43;51.82
48874;BME280;66155;46.204;5.220;2023-04-27T00:18:22;98680.94;;;14.39;51.98
48874;BME280;66155;46.204;5.220;2023-04-27T00:23:23;98685.66;;;14.37;51.89
48874;BME280;66155;46.204;5.220;2023-04-27T00:28:23;98679.69;;;14.26;52.31
48874;BME280;66155;46.204;5.220;2023-04-27T00:33:24;98670.78;;;14.22;52.66
48874;BME280;66155;46.204;5.220;2023-04-27T00:38:24;98665.31;;;14.19;52.60
48874;BME280;66155;46.204;5.220;2023-04-27T00:43:24;98667.16;;;14.18;52.87
48874;BME280;66155;46.204;5.220;2023-04-27T00:48:25;98658.50;;;14.18;53.23
48874;BME280;66155;46.204;5.220;2023-04-27T00:53:26;98659.47;;;14.32;53.13
48874;BME280;66155;46.204;5.220;2023-04-27T00:58:26;98660.19;;;14.43;53.57
48874;BME280;66155;46.204;5.220;2023-04-27T01:03:27;98647.59;;;14.45;53.39
48874;BME280;66155;46.204;5.220;2023-04-27T01:08:28;98643.75;;;14.32;53.95
48874;BME280;66155;46.204;5.220;2023-04-27T01:13:28;98650.91;;;14.21;53.84
48874;BME280;66155;46.204;5.220;2023-04-27T01:18:29;98657.97;;;14.21;54.29
48874;BME280;66155;46.204;5.220;2023-04-27T01:23:29;98656.47;;;14.04;54.50
48874;BME280;66155;46.204;5.220;2023-04-27T01:28:30;98659.94;;;13.95;54.87
48874;BME280;66155;46.204;5.220;2023-04-27T01:33:30;98650.25;;;13.90;54.92
48874;BME280;66155;46.204;5.220;2023-04-27T01:38:31;98646.34;;;13.87;55.04
48874;BME280;66155;46.204;5.220;2023-04-27T01:43:32;98651.59;;;13.87;55.21
48874;BME280;66155;46.204;5.220;2023-04-27T01:48:33;98659.88;;;14.05;54.91
48874;BME280;66155;46.204;5.220;2023-04-27T01:53:34;98662.97;;;14.12;54.68
48874;BME280;66155;46.204;5.220;2023-04-27T01:58:34;98654.38;;;14.06;55.10
48874;BME280;66155;46.204;5.220;2023-04-27T02:03:35;98644.94;;;14.11;55.04
48874;BME280;66155;46.204;5.220;2023-04-27T02:08:35;98651.13;;;14.25;54.96
48874;BME280;66155;46.204;5.220;2023-04-27T02:13:36;98635.09;;;14.32;54.67
48874;BME280;66155;46.204;5.220;2023-04-27T02:18:37;98644.75;;;14.41;54.74
48874;BME280;66155;46.204;5.220;2023-04-27T02:23:37;98647.13;;;14.38;55.14
48874;BME280;66155;46.204;5.220;2023-04-27T02:28:38;98651.28;;;14.39;54.82
48874;BME280;66155;46.204;5.220;2023-04-27T02:33:38;98656.28;;;14.40;54.73
48874;BME280;66155;46.204;5.220;2023-04-27T02:38:39;98672.88;;;14.25;56.04
48874;BME280;66155;46.204;5.220;2023-04-27T02:43:39;98679.06;;;13.90;57.29
48874;BME280;66155;46.204;5.220;2023-04-27T02:48:39;98667.88;;;13.64;58.41
48874;BME280;66155;46.204;5.220;2023-04-27T02:53:40;98677.34;;;13.49;58.25
48874;BME280;66155;46.204;5.220;2023-04-27T02:58:40;98671.88;;;13.36;58.22
48874;BME280;66155;46.204;5.220;2023-04-27T03:03:43;98670.84;;;13.42;57.96
48874;BME280;66155;46.204;5.220;2023-04-27T03:08:43;98664.53;;;13.48;57.53
48874;BME280;66155;46.204;5.220;2023-04-27T03:13:44;98672.59;;;13.67;57.22
48874;BME280;66155;46.204;5.220;2023-04-27T03:18:45;98674.34;;;13.87;56.57
48874;BME280;66155;46.204;5.220;2023-04-27T03:23:45;98670.69;;;13.93;56.67
48874;BME280;66155;46.204;5.220;2023-04-27T03:28:46;98662.25;;;13.96;56.55
48874;BME280;66155;46.204;5.220;2023-04-27T03:33:46;98657.81;;;14.02;56.60
48874;BME280;66155;46.204;5.220;2023-04-27T03:38:47;98656.47;;;14.04;57.10
48874;BME280;66155;46.204;5.220;2023-04-27T03:43:47;98652.56;;;14.07;56.85
48874;BME280;66155;46.204;5.220;2023-04-27T03:48:48;98653.59;;;14.06;56.85
48874;BME280;66155;46.204;5.220;2023-04-27T03:53:48;98655.47;;;13.95;57.07
48874;BME280;66155;46.204;5.220;2023-04-27T03:58:49;98665.47;;;13.83;57.14
48874;BME280;66155;46.204;5.220;2023-04-27T04:03:49;98663.97;;;13.61;57.57
48874;BME280;66155;46.204;5.220;2023-04-27T04:08:50;98669.25;;;13.46;58.14
48874;BME280;66155;46.204;5.220;2023-04-27T04:13:51;98671.09;;;13.35;58.52
48874;BME280;66155;46.204;5.220;2023-04-27T04:18:51;98681.84;;;13.13;59.52
48874;BME280;66155;46.204;5.220;2023-04-27T04:23:52;98679.47;;;12.91;60.46
48874;BME280;66155;46.204;5.220;2023-04-27T04:28:52;98665.88;;;12.94;59.85
48874;BME280;66155;46.204;5.220;2023-04-27T04:33:52;98675.03;;;13.02;59.51
48874;BME280;66155;46.204;5.220;2023-04-27T04:38:53;98670.84;;;13.06;59.31
48874;BME280;66155;46.204;5.220;2023-04-27T04:43:54;98682.34;;;13.05;59.68
48874;BME280;66155;46.204;5.220;2023-04-27T04:48:54;98684.97;;;13.05;59.76
48874;BME280;66155;46.204;5.220;2023-04-27T04:53:55;98683.38;;;13.14;59.74
48874;BME280;66155;46.204;5.220;2023-04-27T04:58:55;98686.00;;;13.29;59.25
48874;BME280;66155;46.204;5.220;2023-04-27T05:03:56;98689.91;;;13.47;59.14
48874;BME280;66155;46.204;5.220;2023-04-27T05:08:56;98692.25;;;13.59;58.76
48874;BME280;66155;46.204;5.220;2023-04-27T05:13:57;98692.75;;;13.72;58.51
48874;BME280;66155;46.204;5.220;2023-04-27T05:18:57;98690.38;;;13.80;58.55
48874;BME280;66155;46.204;5.220;2023-04-27T05:23:57;98701.31;;;13.93;58.46
48874;BME280;66155;46.204;5.220;2023-04-27T05:28:58;98697.38;;;14.00;58.28
48874;BME280;66155;46.204;5.220;2023-04-27T05:33:58;98711.53;;;13.89;58.52
48874;BME280;66155;46.204;5.220;2023-04-27T05:38:59;98714.22;;;13.79;58.64
48874;BME280;66155;46.204;5.220;2023-04-27T05:43:59;98715.50;;;13.81;59.04
48874;BME280;66155;46.204;5.220;2023-04-27T05:49:00;98722.56;;;13.86;58.76
48874;BME280;66155;46.204;5.220;2023-04-27T05:54:00;98716.25;;;13.92;58.36
48874;BME280;66155;46.204;5.220;2023-04-27T05:59:01;98730.09;;;13.98;58.60
48874;BME280;66155;46.204;5.220;2023-04-27T06:04:01;98728.22;;;14.14;58.41
48874;BME280;66155;46.204;5.220;2023-04-27T06:09:01;98731.03;;;14.27;58.27
48874;BME280;66155;46.204;5.220;2023-04-27T06:14:02;98723.19;;;14.22;58.06
48874;BME280;66155;46.204;5.220;2023-04-27T06:19:03;98725.28;;;14.25;58.15
48874;BME280;66155;46.204;5.220;2023-04-27T06:24:03;98723.44;;;14.31;58.36
48874;BME280;66155;46.204;5.220;2023-04-27T06:29:04;98718.94;;;14.37;57.95
48874;BME280;66155;46.204;5.220;2023-04-27T06:34:06;98718.88;;;14.47;58.17
48874;BME280;66155;46.204;5.220;2023-04-27T06:39:07;98725.69;;;14.53;57.97
48874;BME280;66155;46.204;5.220;2023-04-27T06:44:07;98730.88;;;14.63;57.90
48874;BME280;66155;46.204;5.220;2023-04-27T06:49:08;98731.09;;;14.72;57.69
48874;BME280;66155;46.204;5.220;2023-04-27T06:54:08;98734.44;;;14.83;57.35
48874;BME280;66155;46.204;5.220;2023-04-27T06:59:09;98725.97;;;14.91;56.76
48874;BME280;66155;46.204;5.220;2023-04-27T07:04:10;98728.06;;;14.94;56.58
48874;BME280;66155;46.204;5.220;2023-04-27T07:09:10;98731.16;;;15.01;56.40
48874;BME280;66155;46.204;5.220;2023-04-27T07:14:11;98724.59;;;14.99;56.22
48874;BME280;66155;46.204;5.220;2023-04-27T07:19:11;98722.19;;;15.08;56.07
48874;BME280;66155;46.204;5.220;2023-04-27T07:24:12;98727.84;;;15.20;55.69
48874;BME280;66155;46.204;5.220;2023-04-27T07:29:12;98707.41;;;15.17;55.80
48874;BME280;66155;46.204;5.220;2023-04-27T07:34:13;98719.16;;;15.25;55.55
48874;BME280;66155;46.204;5.220;2023-04-27T07:39:14;98715.44;;;15.31;55.13
48874;BME280;66155;46.204;5.220;2023-04-27T07:44:16;98705.09;;;15.39;54.92
48874;BME280;66155;46.204;5.220;2023-04-27T07:49:17;98701.09;;;15.47;54.41
48874;BME280;66155;46.204;5.220;2023-04-27T07:54:19;98698.88;;;15.59;53.94
48874;BME280;66155;46.204;5.220;2023-04-27T07:59:19;98697.22;;;15.69;53.58
48874;BME280;66155;46.204;5.220;2023-04-27T08:04:20;98695.50;;;15.83;53.16
48874;BME280;66155;46.204;5.220;2023-04-27T08:09:20;98690.69;;;15.90;52.47
48874;BME280;66155;46.204;5.220;2023-04-27T08:14:21;98698.69;;;16.04;52.21
48874;BME280;66155;46.204;5.220;2023-04-27T08:19:21;98687.75;;;16.35;51.73
48874;BME280;66155;46.204;5.220;2023-04-27T08:24:21;98687.88;;;16.63;51.25
48874;BME280;66155;46.204;5.220;2023-04-27T08:29:22;98691.06;;;16.79;51.05
48874;BME280;66155;46.204;5.220;2023-04-27T08:34:22;98702.47;;;16.93;50.03
48874;BME280;66155;46.204;5.220;2023-04-27T08:39:23;98687.34;;;17.32;49.87
48874;BME280;66155;46.204;5.220;2023-04-27T08:44:24;98684.31;;;17.80;49.58
48874;BME280;66155;46.204;5.220;2023-04-27T08:49:24;98682.69;;;17.98;48.97
48874;BME280;66155;46.204;5.220;2023-04-27T08:54:25;98690.91;;;17.96;49.05
48874;BME280;66155;46.204;5.220;2023-04-27T08:59:26;98688.56;;;17.95;48.51
48874;BME280;66155;46.204;5.220;2023-04-27T09:04:39;98682.47;;;18.08;48.74
48874;BME280;66155;46.204;5.220;2023-04-27T09:09:41;98690.00;;;18.01;48.39
48874;BME280;66155;46.204;5.220;2023-04-27T09:14:42;98688.16;;;18.01;48.79
48874;BME280;66155;46.204;5.220;2023-04-27T09:19:42;98685.56;;;18.24;48.85
48874;BME280;66155;46.204;5.220;2023-04-27T09:24:51;98682.78;;;18.43;47.13
48874;BME280;66155;46.204;5.220;2023-04-27T09:29:52;98682.06;;;18.74;47.42
48874;BME280;66155;46.204;5.220;2023-04-27T09:34:52;98682.81;;;18.66;47.62
48874;BME280;66155;46.204;5.220;2023-04-27T09:39:53;98677.94;;;18.59;47.59
48874;BME280;66155;46.204;5.220;2023-04-27T09:44:54;98681.94;;;18.56;47.11
48874;BME280;66155;46.204;5.220;2023-04-27T09:49:55;98685.50;;;18.74;46.67
48874;BME280;66155;46.204;5.220;2023-04-27T09:54:59;98685.63;;;19.14;46.05
48874;BME280;66155;46.204;5.220;2023-04-27T10:00:19;98680.13;;;19.73;44.58
48874;BME280;66155;46.204;5.220;2023-04-27T10:05:32;98679.75;;;20.15;44.22
48874;BME280;66155;46.204;5.220;2023-04-27T10:10:49;98679.28;;;20.30;43.84
48874;BME280;66155;46.204;5.220;2023-04-27T10:15:50;98681.78;;;20.36;44.64
48874;BME280;66155;46.204;5.220;2023-04-27T10:20:51;98675.09;;;20.47;44.31
48874;BME280;66155;46.204;5.220;2023-04-27T10:25:53;98668.41;;;20.67;44.16
48874;BME280;66155;46.204;5.220;2023-04-27T10:30:53;98667.44;;;20.80;44.05
48874;BME280;66155;46.204;5.220;2023-04-27T10:35:56;98679.28;;;20.92;43.79
48874;BME280;66155;46.204;5.220;2023-04-27T10:40:58;98675.75;;;21.26;43.45
48874;BME280;66155;46.204;5.220;2023-04-27T10:46:12;98665.31;;;21.21;42.73
48874;BME280;66155;46.204;5.220;2023-04-27T10:51:16;98672.03;;;21.27;42.83
48874;BME280;66155;46.204;5.220;2023-04-27T10:56:17;98661.75;;;21.17;42.30
48874;BME280;66155;46.204;5.220;2023-04-27T11:01:27;98659.66;;;21.40;42.63
48874;BME280;66155;46.204;5.220;2023-04-27T11:06:29;98654.75;;;21.59;42.59
48874;BME280;66155;46.204;5.220;2023-04-27T11:11:29;98653.09;;;21.76;42.06
48874;BME280;66155;46.204;5.220;2023-04-27T11:16:30;98652.06;;;21.68;41.73
48874;BME280;66155;46.204;5.220;2023-04-27T11:21:31;98652.16;;;21.42;42.03
48874;BME280;66155;46.204;5.220;2023-04-27T11:26:32;98645.50;;;21.65;41.22
48874;BME280;66155;46.204;5.220;2023-04-27T11:31:48;98650.34;;;21.63;40.95
48874;BME280;66155;46.204;5.220;2023-04-27T11:37:00;98647.94;;;21.79;40.83
48874;BME280;66155;46.204;5.220;2023-04-27T11:47:20;98640.19;;;22.16;40.77
48874;BME280;66155;46.204;5.220;2023-04-27T11:52:26;98636.06;;;22.07;40.40
48874;BME280;66155;46.204;5.220;2023-04-27T11:57:27;98636.91;;;22.19;39.38
48874;BME280;66155;46.204;5.220;2023-04-27T12:02:29;98637.19;;;22.60;39.67
48874;BME280;66155;46.204;5.220;2023-04-27T12:07:30;98619.91;;;23.00;38.45
48874;BME280;66155;46.204;5.220;2023-04-27T12:12:30;98617.41;;;23.15;37.95
48874;BME280;66155;46.204;5.220;2023-04-27T12:17:31;98618.28;;;23.20;35.79
48874;BME280;66155;46.204;5.220;2023-04-27T12:22:32;98635.44;;;23.10;37.53
48874;BME280;66155;46.204;5.220;2023-04-27T12:27:32;98625.16;;;23.08;37.24
48874;BME280;66155;46.204;5.220;2023-04-27T12:32:32;98627.94;;;23.24;36.75
48874;BME280;66155;46.204;5.220;2023-04-27T12:37:33;98608.88;;;23.22;36.78
48874;BME280;66155;46.204;5.220;2023-04-27T12:42:34;98615.19;;;23.54;36.71
48874;BME280;66155;46.204;5.220;2023-04-27T12:47:35;98614.59;;;23.86;36.02
48874;BME280;66155;46.204;5.220;2023-04-27T12:52:35;98607.94;;;23.80;35.47
48874;BME280;66155;46.204;5.220;2023-04-27T12:57:36;98604.66;;;23.58;35.81
48874;BME280;66155;46.204;5.220;2023-04-27T13:02:36;98614.31;;;23.50;35.59
48874;BME280;66155;46.204;5.220;2023-04-27T13:07:37;98601.31;;;23.73;35.26
48874;BME280;66155;46.204;5.220;2023-04-27T13:12:37;98602.25;;;24.34;34.98
48874;BME280;66155;46.204;5.220;2023-04-27T13:17:38;98604.16;;;24.49;35.00
48874;BME280;66155;46.204;5.220;2023-04-27T13:22:38;98590.63;;;24.55;34.32
48874;BME280;66155;46.204;5.220;2023-04-27T13:27:39;98586.09;;;24.55;34.81
48874;BME280;66155;46.204;5.220;2023-04-27T13:32:40;98596.78;;;24.43;34.50
48874;BME280;66155;46.204;5.220;2023-04-27T13:37:40;98592.56;;;24.14;33.93
48874;BME280;66155;46.204;5.220;2023-04-27T13:42:41;98571.34;;;24.45;33.86
48874;BME280;66155;46.204;5.220;2023-04-27T13:47:41;98573.53;;;24.27;34.15
48874;BME280;66155;46.204;5.220;2023-04-27T13:52:42;98576.81;;;24.37;34.10
48874;BME280;66155;46.204;5.220;2023-04-27T13:57:42;98577.41;;;25.06;33.31
48874;BME280;66155;46.204;5.220;2023-04-27T14:02:43;98571.31;;;24.90;33.24
48874;BME280;66155;46.204;5.220;2023-04-27T14:07:43;98570.97;;;24.75;31.89
48874;BME280;66155;46.204;5.220;2023-04-27T14:12:44;98561.84;;;24.60;31.36
48874;BME280;66155;46.204;5.220;2023-04-27T14:17:45;98559.00;;;24.85;32.13
48874;BME280;66155;46.204;5.220;2023-04-27T14:22:45;98550.44;;;25.43;31.48
48874;BME280;66155;46.204;5.220;2023-04-27T14:27:46;98554.84;;;25.71;31.13
48874;BME280;66155;46.204;5.220;2023-04-27T14:32:46;98538.00;;;26.29;30.47
48874;BME280;66155;46.204;5.220;2023-04-27T14:37:46;98545.94;;;26.02;30.67
48874;BME280;66155;46.204;5.220;2023-04-27T14:42:48;98546.97;;;25.78;30.82
48874;BME280;66155;46.204;5.220;2023-04-27T14:47:48;98546.50;;;26.34;30.35
48874;BME280;66155;46.204;5.220;2023-04-27T14:52:48;98549.50;;;26.29;30.01
48874;BME280;66155;46.204;5.220;2023-04-27T14:57:49;98547.75;;;26.17;30.18
48874;BME280;66155;46.204;5.220;2023-04-27T15:02:50;98533.25;;;26.61;29.65
48874;BME280;66155;46.204;5.220;2023-04-27T15:07:50;98549.63;;;26.36;29.37
48874;BME280;66155;46.204;5.220;2023-04-27T15:12:51;98533.59;;;26.36;29.80
48874;BME280;66155;46.204;5.220;2023-04-27T15:17:51;98529.00;;;26.60;29.08
48874;BME280;66155;46.204;5.220;2023-04-27T15:22:52;98524.84;;;26.40;29.57
48874;BME280;66155;46.204;5.220;2023-04-27T15:27:52;98535.31;;;26.71;29.12
48874;BME280;66155;46.204;5.220;2023-04-27T15:32:52;98525.31;;;26.22;28.72
48874;BME280;66155;46.204;5.220;2023-04-27T15:37:53;98535.31;;;26.06;29.23
48874;BME280;66155;46.204;5.220;2023-04-27T15:42:54;98529.28;;;27.28;27.66
48874;BME280;66155;46.204;5.220;2023-04-27T15:47:54;98527.59;;;28.48;26.72
48874;BME280;66155;46.204;5.220;2023-04-27T15:52:55;98508.16;;;31.02;24.53
48874;BME280;66155;46.204;5.220;2023-04-27T15:57:55;98493.75;;;33.78;22.34
48874;BME280;66155;46.204;5.220;2023-04-27T16:02:56;98490.78;;;33.96;21.49
48874;BME280;66155;46.204;5.220;2023-04-27T16:07:56;98495.41;;;34.23;20.52
48874;BME280;66155;46.204;5.220;2023-04-27T16:12:57;98481.19;;;35.46;20.23
48874;BME280;66155;46.204;5.220;2023-04-27T16:17:57;98490.72;;;35.91;19.76
48874;BME280;66155;46.204;5.220;2023-04-27T16:22:58;98478.88;;;36.34;19.65
48874;BME280;66155;46.204;5.220;2023-04-27T16:27:58;98481.66;;;34.37;21.15
48874;BME280;66155;46.204;5.220;2023-04-27T16:32:59;98491.28;;;31.87;22.97
48874;BME280;66155;46.204;5.220;2023-04-27T16:37:59;98493.19;;;30.19;24.35
48874;BME280;66155;46.204;5.220;2023-04-27T16:43:00;98491.97;;;29.87;24.62
48874;BME280;66155;46.204;5.220;2023-04-27T16:48:01;98482.31;;;29.72;24.67
48874;BME280;66155;46.204;5.220;2023-04-27T16:53:05;98501.22;;;29.13;25.25
48874;BME280;66155;46.204;5.220;2023-04-27T16:58:06;98499.66;;;28.08;26.22
48874;BME280;66155;46.204;5.220;2023-04-27T17:03:06;98496.47;;;27.31;26.84
48874;BME280;66155;46.204;5.220;2023-04-27T17:08:07;98488.78;;;26.99;27.42
48874;BME280;66155;46.204;5.220;2023-04-27T17:13:07;98490.03;;;26.59;27.73
48874;BME280;66155;46.204;5.220;2023-04-27T17:18:10;98482.72;;;26.29;28.05
48874;BME280;66155;46.204;5.220;2023-04-27T17:23:10;98486.44;;;26.02;28.56
48874;BME280;66155;46.204;5.220;2023-04-27T17:28:11;98488.25;;;25.78;28.87
48874;BME280;66155;46.204;5.220;2023-04-27T17:33:11;98487.19;;;25.43;29.28
48874;BME280;66155;46.204;5.220;2023-04-27T17:38:14;98489.66;;;25.17;29.54
48874;BME280;66155;46.204;5.220;2023-04-27T17:43:15;98476.03;;;25.02;29.77
48874;BME280;66155;46.204;5.220;2023-04-27T17:48:15;98487.25;;;25.12;29.67
48874;BME280;66155;46.204;5.220;2023-04-27T17:53:16;98493.91;;;25.02;29.89
48874;BME280;66155;46.204;5.220;2023-04-27T17:58:16;98496.88;;;24.81;30.20
48874;BME280;66155;46.204;5.220;2023-04-27T18:03:16;98501.50;;;24.52;30.57
48874;BME280;66155;46.204;5.220;2023-04-27T18:08:17;98513.25;;;24.35;30.85
48874;BME280;66155;46.204;5.220;2023-04-27T18:13:17;98509.97;;;24.26;31.22
48874;BME280;66155;46.204;5.220;2023-04-27T18:18:18;98501.72;;;24.15;31.35
48874;BME280;66155;46.204;5.220;2023-04-27T18:23:20;98508.81;;;23.95;31.83
48874;BME280;66155;46.204;5.220;2023-04-27T18:28:21;98498.38;;;23.62;32.32
48874;BME280;66155;46.204;5.220;2023-04-27T18:33:21;98492.03;;;23.26;33.08
48874;BME280;66155;46.204;5.220;2023-04-27T18:38:21;98493.56;;;23.02;33.21
48874;BME280;66155;46.204;5.220;2023-04-27T18:43:22;98487.16;;;22.78;33.67
48874;BME280;66155;46.204;5.220;2023-04-27T18:48:22;98487.16;;;22.54;34.05
48874;BME280;66155;46.204;5.220;2023-04-27T18:53:23;98504.50;;;22.39;34.35
48874;BME280;66155;46.204;5.220;2023-04-27T18:58:23;98505.75;;;22.20;34.68
48874;BME280;66155;46.204;5.220;2023-04-27T19:03:24;98508.84;;;22.10;34.92
48874;BME280;66155;46.204;5.220;2023-04-27T19:08:24;98510.13;;;22.04;35.17
48874;BME280;66155;46.204;5.220;2023-04-27T19:13:25;98507.44;;;21.92;35.47
48874;BME280;66155;46.204;5.220;2023-04-27T19:18:26;98511.25;;;21.82;35.79
48874;BME280;66155;46.204;5.220;2023-04-27T19:23:26;98520.19;;;21.77;36.05
48874;BME280;66155;46.204;5.220;2023-04-27T19:28:26;98518.03;;;21.71;36.15
48874;BME280;66155;46.204;5.220;2023-04-27T19:33:27;98525.16;;;21.58;36.71
48874;BME280;66155;46.204;5.220;2023-04-27T19:38:27;98531.31;;;21.50;36.74
48874;BME280;66155;46.204;5.220;2023-04-27T19:43:28;98526.88;;;21.33;37.12
48874;BME280;66155;46.204;5.220;2023-04-27T19:48:29;98536.03;;;21.14;37.47
48874;BME280;66155;46.204;5.220;2023-04-27T19:53:29;98532.34;;;20.98;37.84
48874;BME280;66155;46.204;5.220;2023-04-27T19:58:30;98532.06;;;20.91;37.92
48874;BME280;66155;46.204;5.220;2023-04-27T20:03:30;98539.72;;;20.83;38.56
48874;BME280;66155;46.204;5.220;2023-04-27T20:08:31;98535.72;;;20.77;38.49
48874;BME280;66155;46.204;5.220;2023-04-27T20:13:33;98534.31;;;20.71;38.52
48874;BME280;66155;46.204;5.220;2023-04-27T20:18:33;98543.53;;;20.65;38.85
48874;BME280;66155;46.204;5.220;2023-04-27T20:23:34;98538.25;;;20.56;39.38
48874;BME280;66155;46.204;5.220;2023-04-27T20:28:34;98534.69;;;20.52;39.23
48874;BME280;66155;46.204;5.220;2023-04-27T20:33:35;98547.44;;;20.50;39.39
48874;BME280;66155;46.204;5.220;2023-04-27T20:38:35;98537.81;;;20.37;39.70
48874;BME280;66155;46.204;5.220;2023-04-27T20:43:36;98526.94;;;20.38;39.64
48874;BME280;66155;46.204;5.220;2023-04-27T20:48:38;98521.94;;;20.37;39.68
48874;BME280;66155;46.204;5.220;2023-04-27T20:53:38;98519.00;;;20.29;39.90
48874;BME280;66155;46.204;5.220;2023-04-27T20:58:39;98516.69;;;20.19;40.14
48874;BME280;66155;46.204;5.220;2023-04-27T21:03:39;98523.25;;;20.13;40.20
48874;BME280;66155;46.204;5.220;2023-04-27T21:08:40;98514.72;;;20.63;39.42
48874;BME280;66155;46.204;5.220;2023-04-27T21:13:41;98512.94;;;20.29;39.74
48874;BME280;66155;46.204;5.220;2023-04-27T21:18:42;98519.34;;;19.93;40.41
48874;BME280;66155;46.204;5.220;2023-04-27T21:23:42;98518.13;;;19.90;40.27
48874;BME280;66155;46.204;5.220;2023-04-27T21:28:43;98520.91;;;19.85;40.64
48874;BME280;66155;46.204;5.220;2023-04-27T21:33:43;98522.00;;;19.84;40.75
48874;BME280;66155;46.204;5.220;2023-04-27T21:38:43;98524.81;;;19.79;40.71
48874;BME280;66155;46.204;5.220;2023-04-27T21:43:44;98513.56;;;19.65;41.10
48874;BME280;66155;46.204;5.220;2023-04-27T21:48:45;98511.72;;;19.56;41.45
48874;BME280;66155;46.204;5.220;2023-04-27T21:53:45;98504.84;;;19.55;41.47
48874;BME280;66155;46.204;5.220;2023-04-27T21:58:46;98502.22;;;19.55;42.14
48874;BME280;66155;46.204;5.220;2023-04-27T22:03:47;98506.13;;;19.58;41.74
48874;BME280;66155;46.204;5.220;2023-04-27T22:08:50;98498.03;;;19.54;42.08
48874;BME280;66155;46.204;5.220;2023-04-27T22:13:51;98504.69;;;19.43;42.52
48874;BME280;66155;46.204;5.220;2023-04-27T22:18:52;98515.09;;;19.40;42.55
48874;BME280;66155;46.204;5.220;2023-04-27T22:23:53;98525.06;;;19.43;42.32
48874;BME280;66155;46.204;5.220;2023-04-27T22:28:53;98514.94;;;19.45;43.03
48874;BME280;66155;46.204;5.220;2023-04-27T22:33:54;98528.31;;;19.48;42.79
48874;BME280;66155;46.204;5.220;2023-04-27T22:38:55;98527.09;;;19.54;42.84
48874;BME280;66155;46.204;5.220;2023-04-27T22:43:56;98526.78;;;19.56;42.62
48874;BME280;66155;46.204;5.220;2023-04-27T22:48:56;98526.16;;;19.50;43.04
48874;BME280;66155;46.204;5.220;2023-04-27T22:53:57;98530.03;;;19.44;43.08
48874;BME280;66155;46.204;5.220;2023-04-27T22:58:58;98536.84;;;19.45;43.30
48874;BME280;66155;46.204;5.220;2023-04-27T23:03:58;98538.25;;;19.43;42.91
48874;BME280;66155;46.204;5.220;2023-04-27T23:08:59;98533.75;;;19.43;43.03
48874;BME280;66155;46.204;5.220;2023-04-27T23:14:00;98535.75;;;19.37;43.07
48874;BME280;66155;46.204;5.220;2023-04-27T23:19:03;98534.84;;;19.42;42.97
48874;BME280;66155;46.204;5.220;2023-04-27T23:24:03;98526.13;;;19.42;43.13
48874;BME280;66155;46.204;5.220;2023-04-27T23:29:04;98522.09;;;19.35;44.08
48874;BME280;66155;46.204;5.220;2023-04-27T23:34:06;98529.41;;;19.38;43.66
48874;BME280;66155;46.204;5.220;2023-04-27T23:39:06;98541.22;;;19.41;43.75
48874;BME280;66155;46.204;5.220;2023-04-27T23:44:07;98539.34;;;19.42;43.95
48874;BME280;66155;46.204;5.220;2023-04-27T23:49:08;98532.66;;;19.35;44.33
48874;BME280;66155;46.204;5.220;2023-04-27T23:54:08;98535.13;;;19.32;44.89
48874;BME280;66155;46.204;5.220;2023-04-27T23:59:09;98524.41;;;19.28;45.02
